Adams, Indiana
Current Conditions -  °F | °C
As of 5:45 PM on Wednesday 26 Nov 2014 (Local Time) from KBAK Reporting Station
Broken Clouds Broken Clouds  
Wind Chill: 27°   Ceiling: 23000
Heat Index: 32°   Visibility: 10mi
Dew Point: 28°   Wind: 5mph
Humidity: 87%   Direction: 10°N
Pressure: 30.05"   Gusts: NA
Location:  39.3206°N, 85.4768°W
Report Text: KBAK 262245Z 01004KT 10SM SCT120 BKN230 00/M02 A3005
Loading
Personal Weather Stations






























Interactive Weather Map New forecast layout! Learn more

10-Day Weather Forecast

Advertisements
Track Severe Weather on mobile